Terminal Aerodrome Forecast
Issued by NWS

Home | Current Version | Previous Version | Text Only | Print | Product List | Glossary On
Versions: 1 2 3 4 5 6 7 8 9 10 11 12 13 14 15
000
FTUS46 KSGX 192300
TAFSNA
TAF
KSNA 192326Z 2000/2024 21009KT P6SM SCT035
     FM200300 20005KT P6SM SCT025
     FM200700 VRB04KT P6SM OVC025
     FM201800 22009KT P6SM SKC=

USA.gov is the U.S. government's official web portal to all federal, state and local government web resources and services.